Thursday, January 19, 2017 (02:11 UTC)
OPMET DATA 
Terminal Aerodrome Forecast (TAF) and METAR
TAFs are issued by Aviation Meteorological Office, for Abu Dhabi (OMAA), Bateen (OMAD), Al Ain (OMAL), Dubai (OMDB), Al Maktoum (OMDW), Sharjah (OMSJ), Ras Al Khaimah (OMRK) and Fujairah (OMFJ) airports. These TAFs are issued every 6 hours and are valid for a 30 hour period. METARs (Aviation Routine Weather Reports) are updated hourly.
Show ICAO codes
Select OPMET type:        SEARCH   PRINT
Aviation Meteorology - National Center of Meteorology & Seismology (NCMS)
Telephone: +971 2 5757346 / 5053676
Email: metweb@adiamet.gov.ae
Website: www.avmet.ae
METAR OMAA 190200Z 16002KT CAVOK 16/12 Q1018 NOSIG=
METAR OMAD 190200Z VRB01KT CAVOK 16/14 Q1018 NOSIG=
METAR OMAL 190200Z 05006KT 9000 NSC 15/11 Q1018 NOSIG=
METAR OMDB 190200Z 04004KT 330V080 CAVOK 19/12 Q1018 NOSIG=
METAR OMDW 190200Z 14003KT 7000 NSC 15/12 Q1019 NOSIG=
METAR OMFJ 190200Z 31005KT 7000 SCT040 19/12 Q1018 A3008=
METAR OMSJ 190200Z 07002KT CAVOK 14/11 Q1018=
METAR OMRK 190200Z 00000KT CAVOK 12/09 Q1019 A3010=
METAR OTBD 190200Z VRB01KT CAVOK 16/12 Q1019 NOSIG=
METAR OTHH 190200Z AUTO 29003KT CAVOK 15/10 Q1019 NOSIG=
METAR OBBI 190200Z VRB01KT 7000 NSC 16/13 Q1019 NOSIG=
METAR OEDF 190200Z 09003KT CAVOK 11/07 Q1018 NOSIG=
METAR OEDR 190200Z 00000KT 8000 NSC 12/10 Q1017 NOSIG=
METAR OEJN 190200Z 07003KT CAVOK 22/18 Q1014 NOSIG=
METAR OEMA 190200Z 00000KT CAVOK 19/01 Q1018 NOSIG=
METAR OEPA 190200Z 11010KT 9999 FEW035 11/04 Q1016 NOSIG=
METAR OERF 190200Z 05007KT 9999 BKN040 BKN100 12/01 Q1016=
METAR OERK 190200Z 16005KT CAVOK 14/04 Q1018 NOSIG=
METAR OERR 190100Z 01007KT CAVOK 06/06 Q1018 NOSIG=
METAR OERY NIL=
METAR OESH 190200Z 09012KT CAVOK 15/02 Q1019 NOSIG=
METAR OETB 190200Z 33005KT CAVOK 08/00 Q1019 NOSIG=
METAR OETF 190100Z 00000KT CAVOK 14/09 Q1022 NOSIG=
METAR OETR 190100Z 09004KT CAVOK 02/01 Q1019=
METAR OEWD 190200Z 12008KT CAVOK 13/09 Q1019 NOSIG=
METAR OEWJ 190200Z 36003KT CAVOK 20/15 Q1016 NOSIG=
METAR OEYN 190200Z 29008KT CAVOK 19/15 Q1014 NOSIG=
METAR OKBK 190200Z 15005KT CAVOK 12/06 Q1018 NOSIG=
METAR OOMS 190150Z 29003KT CAVOK 21/16 Q1018 NOSIG=
METAR OOSA 190150Z 36007KT CAVOK 22/08 Q1017 NOSIG=
METAR OYSN NIL=
METAR OYAA NIL=
 
Thursday, January 19, 2017 (02:11 UTC)